sensor_id;sensor_type;location;lat;lon;timestamp;P1;durP1;ratioP1;P2;durP2;ratioP2
61397;SDS011;47267;48.130;-2.040;2022-10-16T00:01:06;3.88;;;0.85;;
61397;SDS011;47267;48.130;-2.040;2022-10-16T00:03:34;1.73;;;0.85;;
61397;SDS011;47267;48.130;-2.040;2022-10-16T00:06:00;2.28;;;0.77;;
61397;SDS011;47267;48.130;-2.040;2022-10-16T00:08:27;2.25;;;0.80;;
61397;SDS011;47267;48.130;-2.040;2022-10-16T00:10:57;3.67;;;1.10;;
61397;SDS011;47267;48.130;-2.040;2022-10-16T00:13:43;1.95;;;0.80;;
61397;SDS011;47267;48.130;-2.040;2022-10-16T00:16:10;1.60;;;0.77;;
61397;SDS011;47267;48.130;-2.040;2022-10-16T00:18:37;1.95;;;0.70;;
61397;SDS011;47267;48.130;-2.040;2022-10-16T00:21:04;2.28;;;0.90;;
61397;SDS011;47267;48.130;-2.040;2022-10-16T00:23:35;2.38;;;0.93;;
61397;SDS011;47267;48.130;-2.040;2022-10-16T00:26:03;2.28;;;0.90;;
61397;SDS011;47267;48.130;-2.040;2022-10-16T00:28:34;1.58;;;0.65;;
61397;SDS011;47267;48.130;-2.040;2022-10-16T00:31:03;2.10;;;0.77;;
61397;SDS011;47267;48.130;-2.040;2022-10-16T00:33:30;2.15;;;0.70;;
61397;SDS011;47267;48.130;-2.040;2022-10-16T00:36:00;1.90;;;0.80;;
61397;SDS011;47267;48.130;-2.040;2022-10-16T00:38:27;2.90;;;0.90;;
61397;SDS011;47267;48.130;-2.040;2022-10-16T00:40:52;1.15;;;0.70;;
61397;SDS011;47267;48.130;-2.040;2022-10-16T00:48:52;2.28;;;0.82;;
61397;SDS011;47267;48.130;-2.040;2022-10-16T00:54:23;1.60;;;0.70;;
61397;SDS011;47267;48.130;-2.040;2022-10-16T00:56:51;2.00;;;0.85;;
61397;SDS011;47267;48.130;-2.040;2022-10-16T00:59:19;2.72;;;1.02;;
61397;SDS011;47267;48.130;-2.040;2022-10-16T01:01:52;2.08;;;0.75;;
61397;SDS011;47267;48.130;-2.040;2022-10-16T01:04:18;1.50;;;0.77;;
61397;SDS011;47267;48.130;-2.040;2022-10-16T01:06:48;2.53;;;0.80;;
61397;SDS011;47267;48.130;-2.040;2022-10-16T01:15:05;1.38;;;0.70;;
61397;SDS011;47267;48.130;-2.040;2022-10-16T01:23:29;1.38;;;0.68;;
61397;SDS011;47267;48.130;-2.040;2022-10-16T01:28:15;1.05;;;0.57;;
61397;SDS011;47267;48.130;-2.040;2022-10-16T01:30:42;2.05;;;0.80;;
61397;SDS011;47267;48.130;-2.040;2022-10-16T01:33:30;1.98;;;0.60;;
61397;SDS011;47267;48.130;-2.040;2022-10-16T01:36:13;1.63;;;0.63;;
61397;SDS011;47267;48.130;-2.040;2022-10-16T01:38:44;1.83;;;0.77;;
61397;SDS011;47267;48.130;-2.040;2022-10-16T01:41:35;3.13;;;0.88;;
61397;SDS011;47267;48.130;-2.040;2022-10-16T01:44:13;1.27;;;0.60;;
61397;SDS011;47267;48.130;-2.040;2022-10-16T01:46:43;2.00;;;0.68;;
61397;SDS011;47267;48.130;-2.040;2022-10-16T01:49:12;3.00;;;0.77;;
61397;SDS011;47267;48.130;-2.040;2022-10-16T01:51:38;1.92;;;0.70;;
61397;SDS011;47267;48.130;-2.040;2022-10-16T01:54:04;1.92;;;0.50;;
61397;SDS011;47267;48.130;-2.040;2022-10-16T01:56:33;0.80;;;0.60;;
61397;SDS011;47267;48.130;-2.040;2022-10-16T01:59:01;1.58;;;0.68;;
61397;SDS011;47267;48.130;-2.040;2022-10-16T02:01:35;2.17;;;0.90;;
61397;SDS011;47267;48.130;-2.040;2022-10-16T02:06:48;1.13;;;0.65;;
61397;SDS011;47267;48.130;-2.040;2022-10-16T02:09:14;1.48;;;0.57;;
61397;SDS011;47267;48.130;-2.040;2022-10-16T02:11:41;2.58;;;0.63;;
61397;SDS011;47267;48.130;-2.040;2022-10-16T02:14:08;1.73;;;0.63;;
61397;SDS011;47267;48.130;-2.040;2022-10-16T02:19:02;0.90;;;0.47;;
61397;SDS011;47267;48.130;-2.040;2022-10-16T02:21:30;0.80;;;0.50;;
61397;SDS011;47267;48.130;-2.040;2022-10-16T02:27:17;2.22;;;0.70;;
61397;SDS011;47267;48.130;-2.040;2022-10-16T02:30:43;1.58;;;0.63;;
61397;SDS011;47267;48.130;-2.040;2022-10-16T02:32:52;1.33;;;0.70;;
61397;SDS011;47267;48.130;-2.040;2022-10-16T02:35:19;1.60;;;0.50;;
61397;SDS011;47267;48.130;-2.040;2022-10-16T02:37:48;1.88;;;0.80;;
61397;SDS011;47267;48.130;-2.040;2022-10-16T02:40:15;1.60;;;0.50;;
61397;SDS011;47267;48.130;-2.040;2022-10-16T02:42:42;3.15;;;0.60;;
61397;SDS011;47267;48.130;-2.040;2022-10-16T02:45:08;1.40;;;0.70;;
61397;SDS011;47267;48.130;-2.040;2022-10-16T02:47:35;2.03;;;0.60;;
61397;SDS011;47267;48.130;-2.040;2022-10-16T02:50:01;2.40;;;0.70;;
61397;SDS011;47267;48.130;-2.040;2022-10-16T02:52:26;2.30;;;0.80;;
61397;SDS011;47267;48.130;-2.040;2022-10-16T02:54:52;2.45;;;0.60;;
61397;SDS011;47267;48.130;-2.040;2022-10-16T02:57:18;1.27;;;0.50;;
61397;SDS011;47267;48.130;-2.040;2022-10-16T02:59:44;1.20;;;0.60;;
61397;SDS011;47267;48.130;-2.040;2022-10-16T03:02:10;1.17;;;0.50;;
61397;SDS011;47267;48.130;-2.040;2022-10-16T03:04:36;1.48;;;0.60;;
61397;SDS011;47267;48.130;-2.040;2022-10-16T03:07:02;1.33;;;0.80;;
61397;SDS011;47267;48.130;-2.040;2022-10-16T03:09:28;1.08;;;0.60;;
61397;SDS011;47267;48.130;-2.040;2022-10-16T03:11:54;1.65;;;0.52;;
61397;SDS011;47267;48.130;-2.040;2022-10-16T03:14:19;1.80;;;0.60;;
61397;SDS011;47267;48.130;-2.040;2022-10-16T03:16:45;1.52;;;0.60;;
61397;SDS011;47267;48.130;-2.040;2022-10-16T03:19:11;1.50;;;0.65;;
61397;SDS011;47267;48.130;-2.040;2022-10-16T03:21:36;0.82;;;0.40;;
61397;SDS011;47267;48.130;-2.040;2022-10-16T03:24:02;2.08;;;0.70;;
61397;SDS011;47267;48.130;-2.040;2022-10-16T03:26:28;1.38;;;0.50;;
61397;SDS011;47267;48.130;-2.040;2022-10-16T03:28:54;1.35;;;0.57;;
61397;SDS011;47267;48.130;-2.040;2022-10-16T03:31:19;1.05;;;0.40;;
61397;SDS011;47267;48.130;-2.040;2022-10-16T03:33:45;1.50;;;0.57;;
61397;SDS011;47267;48.130;-2.040;2022-10-16T03:36:11;1.98;;;0.60;;
61397;SDS011;47267;48.130;-2.040;2022-10-16T03:38:36;1.17;;;0.60;;
61397;SDS011;47267;48.130;-2.040;2022-10-16T03:41:02;2.47;;;0.80;;
61397;SDS011;47267;48.130;-2.040;2022-10-16T03:43:28;1.55;;;0.70;;
61397;SDS011;47267;48.130;-2.040;2022-10-16T03:45:54;2.75;;;0.60;;
61397;SDS011;47267;48.130;-2.040;2022-10-16T03:48:20;1.73;;;0.70;;
61397;SDS011;47267;48.130;-2.040;2022-10-16T03:50:46;0.93;;;0.50;;
61397;SDS011;47267;48.130;-2.040;2022-10-16T03:53:13;1.30;;;0.57;;
61397;SDS011;47267;48.130;-2.040;2022-10-16T03:55:41;1.33;;;0.60;;
61397;SDS011;47267;48.130;-2.040;2022-10-16T03:58:07;1.33;;;0.45;;
61397;SDS011;47267;48.130;-2.040;2022-10-16T04:00:33;1.92;;;0.70;;
61397;SDS011;47267;48.130;-2.040;2022-10-16T04:02:59;2.97;;;0.68;;
61397;SDS011;47267;48.130;-2.040;2022-10-16T04:05:25;1.52;;;0.57;;
61397;SDS011;47267;48.130;-2.040;2022-10-16T04:07:51;2.22;;;0.60;;
61397;SDS011;47267;48.130;-2.040;2022-10-16T04:10:17;2.08;;;0.60;;
61397;SDS011;47267;48.130;-2.040;2022-10-16T04:12:44;0.80;;;0.50;;
61397;SDS011;47267;48.130;-2.040;2022-10-16T04:15:09;0.73;;;0.40;;
61397;SDS011;47267;48.130;-2.040;2022-10-16T04:17:35;0.68;;;0.38;;
61397;SDS011;47267;48.130;-2.040;2022-10-16T04:20:01;1.17;;;0.60;;
61397;SDS011;47267;48.130;-2.040;2022-10-16T04:22:27;1.30;;;0.70;;
61397;SDS011;47267;48.130;-2.040;2022-10-16T04:24:53;0.63;;;0.40;;
61397;SDS011;47267;48.130;-2.040;2022-10-16T04:27:18;2.10;;;0.70;;
61397;SDS011;47267;48.130;-2.040;2022-10-16T04:29:44;0.70;;;0.43;;
61397;SDS011;47267;48.130;-2.040;2022-10-16T04:32:10;2.05;;;0.65;;
61397;SDS011;47267;48.130;-2.040;2022-10-16T04:34:35;1.83;;;0.70;;
61397;SDS011;47267;48.130;-2.040;2022-10-16T04:37:03;1.40;;;0.60;;
61397;SDS011;47267;48.130;-2.040;2022-10-16T04:39:28;1.67;;;0.38;;
61397;SDS011;47267;48.130;-2.040;2022-10-16T04:41:54;1.33;;;0.60;;
61397;SDS011;47267;48.130;-2.040;2022-10-16T04:44:20;1.67;;;0.60;;
61397;SDS011;47267;48.130;-2.040;2022-10-16T04:46:45;1.00;;;0.50;;
61397;SDS011;47267;48.130;-2.040;2022-10-16T04:49:11;1.38;;;0.50;;
61397;SDS011;47267;48.130;-2.040;2022-10-16T04:51:37;2.13;;;0.60;;
61397;SDS011;47267;48.130;-2.040;2022-10-16T04:54:02;1.13;;;0.47;;
61397;SDS011;47267;48.130;-2.040;2022-10-16T04:56:28;0.88;;;0.40;;
61397;SDS011;47267;48.130;-2.040;2022-10-16T04:58:54;1.17;;;0.50;;
61397;SDS011;47267;48.130;-2.040;2022-10-16T05:01:19;2.10;;;0.70;;
61397;SDS011;47267;48.130;-2.040;2022-10-16T05:03:45;1.70;;;0.77;;
61397;SDS011;47267;48.130;-2.040;2022-10-16T05:06:11;0.82;;;0.40;;
61397;SDS011;47267;48.130;-2.040;2022-10-16T05:08:36;1.52;;;0.70;;
61397;SDS011;47267;48.130;-2.040;2022-10-16T05:11:02;1.08;;;0.47;;
61397;SDS011;47267;48.130;-2.040;2022-10-16T05:13:28;1.92;;;0.73;;
61397;SDS011;47267;48.130;-2.040;2022-10-16T05:15:53;0.65;;;0.50;;
61397;SDS011;47267;48.130;-2.040;2022-10-16T05:18:19;1.33;;;0.50;;
61397;SDS011;47267;48.130;-2.040;2022-10-16T05:20:45;1.55;;;0.50;;
61397;SDS011;47267;48.130;-2.040;2022-10-16T05:23:10;1.63;;;0.50;;
61397;SDS011;47267;48.130;-2.040;2022-10-16T05:25:36;2.17;;;0.50;;
61397;SDS011;47267;48.130;-2.040;2022-10-16T05:28:02;1.48;;;0.50;;
61397;SDS011;47267;48.130;-2.040;2022-10-16T05:30:28;2.50;;;0.50;;
61397;SDS011;47267;48.130;-2.040;2022-10-16T05:32:54;0.85;;;0.40;;
61397;SDS011;47267;48.130;-2.040;2022-10-16T05:35:20;0.73;;;0.40;;
61397;SDS011;47267;48.130;-2.040;2022-10-16T05:37:46;1.42;;;0.47;;
61397;SDS011;47267;48.130;-2.040;2022-10-16T05:40:13;0.43;;;0.30;;
61397;SDS011;47267;48.130;-2.040;2022-10-16T05:42:40;2.00;;;0.65;;
61397;SDS011;47267;48.130;-2.040;2022-10-16T05:45:06;1.90;;;0.60;;
61397;SDS011;47267;48.130;-2.040;2022-10-16T05:47:34;1.58;;;0.60;;
61397;SDS011;47267;48.130;-2.040;2022-10-16T05:50:00;3.00;;;0.65;;
61397;SDS011;47267;48.130;-2.040;2022-10-16T05:52:26;2.67;;;0.60;;
61397;SDS011;47267;48.130;-2.040;2022-10-16T05:54:52;1.23;;;0.60;;
61397;SDS011;47267;48.130;-2.040;2022-10-16T05:57:18;2.38;;;0.63;;
61397;SDS011;47267;48.130;-2.040;2022-10-16T05:59:43;1.27;;;0.45;;
61397;SDS011;47267;48.130;-2.040;2022-10-16T06:02:15;1.83;;;0.47;;
61397;SDS011;47267;48.130;-2.040;2022-10-16T06:04:41;1.27;;;0.70;;
61397;SDS011;47267;48.130;-2.040;2022-10-16T06:07:07;1.42;;;0.50;;
61397;SDS011;47267;48.130;-2.040;2022-10-16T06:09:32;0.70;;;0.40;;
61397;SDS011;47267;48.130;-2.040;2022-10-16T06:11:58;1.10;;;0.47;;
61397;SDS011;47267;48.130;-2.040;2022-10-16T06:14:24;0.77;;;0.40;;
61397;SDS011;47267;48.130;-2.040;2022-10-16T06:16:49;0.80;;;0.43;;
61397;SDS011;47267;48.130;-2.040;2022-10-16T06:19:15;1.38;;;0.40;;
61397;SDS011;47267;48.130;-2.040;2022-10-16T06:21:42;1.60;;;0.60;;
61397;SDS011;47267;48.130;-2.040;2022-10-16T06:24:08;0.73;;;0.40;;
61397;SDS011;47267;48.130;-2.040;2022-10-16T06:26:34;0.73;;;0.47;;
61397;SDS011;47267;48.130;-2.040;2022-10-16T06:29:00;1.27;;;0.60;;
61397;SDS011;47267;48.130;-2.040;2022-10-16T06:31:26;1.55;;;0.70;;
61397;SDS011;47267;48.130;-2.040;2022-10-16T06:33:55;1.38;;;0.50;;
61397;SDS011;47267;48.130;-2.040;2022-10-16T06:36:21;1.65;;;0.60;;
61397;SDS011;47267;48.130;-2.040;2022-10-16T06:38:48;1.67;;;0.55;;
61397;SDS011;47267;48.130;-2.040;2022-10-16T06:41:15;1.58;;;0.55;;
61397;SDS011;47267;48.130;-2.040;2022-10-16T06:43:42;1.08;;;0.40;;
61397;SDS011;47267;48.130;-2.040;2022-10-16T06:46:12;1.25;;;0.60;;
61397;SDS011;47267;48.130;-2.040;2022-10-16T06:48:39;1.88;;;0.50;;
61397;SDS011;47267;48.130;-2.040;2022-10-16T06:51:06;0.93;;;0.50;;
61397;SDS011;47267;48.130;-2.040;2022-10-16T06:53:35;1.27;;;0.60;;
61397;SDS011;47267;48.130;-2.040;2022-10-16T06:56:09;0.68;;;0.40;;
61397;SDS011;47267;48.130;-2.040;2022-10-16T06:58:36;3.42;;;0.80;;
61397;SDS011;47267;48.130;-2.040;2022-10-16T07:01:02;1.35;;;0.52;;
61397;SDS011;47267;48.130;-2.040;2022-10-16T07:03:29;0.90;;;0.60;;
61397;SDS011;47267;48.130;-2.040;2022-10-16T07:05:55;1.25;;;0.63;;
61397;SDS011;47267;48.130;-2.040;2022-10-16T07:08:21;1.45;;;0.70;;
61397;SDS011;47267;48.130;-2.040;2022-10-16T07:10:47;0.52;;;0.40;;
61397;SDS011;47267;48.130;-2.040;2022-10-16T07:13:13;1.63;;;0.80;;
61397;SDS011;47267;48.130;-2.040;2022-10-16T07:15:39;1.60;;;0.60;;
61397;SDS011;47267;48.130;-2.040;2022-10-16T07:18:06;1.30;;;0.80;;
61397;SDS011;47267;48.130;-2.040;2022-10-16T07:20:32;2.10;;;0.50;;
61397;SDS011;47267;48.130;-2.040;2022-10-16T07:22:58;0.82;;;0.40;;
61397;SDS011;47267;48.130;-2.040;2022-10-16T07:25:23;1.58;;;0.40;;
61397;SDS011;47267;48.130;-2.040;2022-10-16T07:27:49;1.77;;;0.60;;
61397;SDS011;47267;48.130;-2.040;2022-10-16T07:30:15;0.63;;;0.45;;
61397;SDS011;47267;48.130;-2.040;2022-10-16T07:32:41;1.15;;;0.65;;
61397;SDS011;47267;48.130;-2.040;2022-10-16T07:35:07;1.10;;;0.60;;
61397;SDS011;47267;48.130;-2.040;2022-10-16T07:37:33;1.17;;;0.52;;
61397;SDS011;47267;48.130;-2.040;2022-10-16T07:39:58;0.98;;;0.50;;
61397;SDS011;47267;48.130;-2.040;2022-10-16T07:42:24;1.50;;;0.70;;
61397;SDS011;47267;48.130;-2.040;2022-10-16T07:44:50;0.75;;;0.60;;
61397;SDS011;47267;48.130;-2.040;2022-10-16T07:47:15;1.20;;;0.50;;
61397;SDS011;47267;48.130;-2.040;2022-10-16T07:49:41;1.02;;;0.68;;
61397;SDS011;47267;48.130;-2.040;2022-10-16T07:52:07;3.30;;;0.70;;
61397;SDS011;47267;48.130;-2.040;2022-10-16T07:54:33;1.25;;;0.70;;
61397;SDS011;47267;48.130;-2.040;2022-10-16T07:56:58;1.00;;;0.70;;
61397;SDS011;47267;48.130;-2.040;2022-10-16T07:59:24;2.08;;;0.80;;
61397;SDS011;47267;48.130;-2.040;2022-10-16T08:01:50;1.20;;;0.82;;
61397;SDS011;47267;48.130;-2.040;2022-10-16T08:04:15;2.13;;;0.90;;
61397;SDS011;47267;48.130;-2.040;2022-10-16T08:06:41;2.88;;;0.93;;
61397;SDS011;47267;48.130;-2.040;2022-10-16T08:09:07;2.20;;;0.73;;
61397;SDS011;47267;48.130;-2.040;2022-10-16T08:11:33;2.17;;;1.10;;
61397;SDS011;47267;48.130;-2.040;2022-10-16T08:13:59;2.58;;;0.80;;
61397;SDS011;47267;48.130;-2.040;2022-10-16T08:16:25;2.15;;;0.80;;
61397;SDS011;47267;48.130;-2.040;2022-10-16T08:18:51;1.15;;;0.60;;
61397;SDS011;47267;48.130;-2.040;2022-10-16T08:21:20;2.17;;;1.10;;
61397;SDS011;47267;48.130;-2.040;2022-10-16T08:23:50;2.22;;;0.80;;
61397;SDS011;47267;48.130;-2.040;2022-10-16T08:26:16;1.60;;;0.95;;
61397;SDS011;47267;48.130;-2.040;2022-10-16T08:28:42;2.15;;;0.93;;
61397;SDS011;47267;48.130;-2.040;2022-10-16T08:31:12;2.55;;;0.80;;
61397;SDS011;47267;48.130;-2.040;2022-10-16T08:33:41;2.50;;;1.10;;
61397;SDS011;47267;48.130;-2.040;2022-10-16T08:36:08;1.38;;;0.90;;
61397;SDS011;47267;48.130;-2.040;2022-10-16T08:38:36;2.13;;;0.95;;
61397;SDS011;47267;48.130;-2.040;2022-10-16T08:43:55;1.20;;;0.70;;
61397;SDS011;47267;48.130;-2.040;2022-10-16T08:49:20;3.28;;;0.80;;
61397;SDS011;47267;48.130;-2.040;2022-10-16T08:51:46;1.83;;;0.93;;
61397;SDS011;47267;48.130;-2.040;2022-10-16T08:54:31;2.08;;;0.98;;
61397;SDS011;47267;48.130;-2.040;2022-10-16T08:59:47;1.58;;;0.80;;
61397;SDS011;47267;48.130;-2.040;2022-10-16T09:04:52;2.25;;;1.10;;
61397;SDS011;47267;48.130;-2.040;2022-10-16T09:07:26;2.60;;;0.85;;
61397;SDS011;47267;48.130;-2.040;2022-10-16T09:13:03;1.50;;;0.95;;
61397;SDS011;47267;48.130;-2.040;2022-10-16T09:15:47;1.70;;;1.10;;
61397;SDS011;47267;48.130;-2.040;2022-10-16T09:23:39;1.67;;;1.00;;
61397;SDS011;47267;48.130;-2.040;2022-10-16T09:26:05;2.13;;;0.98;;
61397;SDS011;47267;48.130;-2.040;2022-10-16T09:28:34;2.37;;;1.20;;
61397;SDS011;47267;48.130;-2.040;2022-10-16T09:31:00;2.72;;;1.00;;
61397;SDS011;47267;48.130;-2.040;2022-10-16T09:33:29;3.00;;;1.10;;
61397;SDS011;47267;48.130;-2.040;2022-10-16T09:36:03;2.63;;;0.95;;
61397;SDS011;47267;48.130;-2.040;2022-10-16T09:38:34;4.40;;;1.00;;
61397;SDS011;47267;48.130;-2.040;2022-10-16T09:41:03;3.65;;;1.02;;
61397;SDS011;47267;48.130;-2.040;2022-10-16T09:44:17;3.05;;;0.98;;
61397;SDS011;47267;48.130;-2.040;2022-10-16T09:47:05;4.47;;;1.10;;
61397;SDS011;47267;48.130;-2.040;2022-10-16T09:49:57;3.05;;;0.80;;
61397;SDS011;47267;48.130;-2.040;2022-10-16T09:52:27;3.53;;;1.08;;
61397;SDS011;47267;48.130;-2.040;2022-10-16T09:54:58;2.97;;;0.80;;
61397;SDS011;47267;48.130;-2.040;2022-10-16T09:57:26;3.90;;;1.30;;
61397;SDS011;47267;48.130;-2.040;2022-10-16T09:59:53;8.55;;;1.23;;
61397;SDS011;47267;48.130;-2.040;2022-10-16T10:02:34;4.80;;;1.20;;
61397;SDS011;47267;48.130;-2.040;2022-10-16T10:05:03;2.90;;;0.90;;
61397;SDS011;47267;48.130;-2.040;2022-10-16T10:07:42;3.40;;;1.20;;
61397;SDS011;47267;48.130;-2.040;2022-10-16T10:10:18;3.97;;;1.00;;
61397;SDS011;47267;48.130;-2.040;2022-10-16T10:12:46;3.78;;;1.13;;
61397;SDS011;47267;48.130;-2.040;2022-10-16T10:15:12;2.92;;;1.17;;
61397;SDS011;47267;48.130;-2.040;2022-10-16T10:17:50;2.35;;;1.00;;
61397;SDS011;47267;48.130;-2.040;2022-10-16T10:20:27;3.60;;;1.38;;
61397;SDS011;47267;48.130;-2.040;2022-10-16T10:22:56;1.65;;;1.00;;
61397;SDS011;47267;48.130;-2.040;2022-10-16T10:25:37;3.95;;;0.93;;
61397;SDS011;47267;48.130;-2.040;2022-10-16T10:37:46;5.50;;;3.45;;
61397;SDS011;47267;48.130;-2.040;2022-10-16T10:42:53;10.57;;;6.90;;
61397;SDS011;47267;48.130;-2.040;2022-10-16T10:51:04;17.20;;;11.25;;
61397;SDS011;47267;48.130;-2.040;2022-10-16T10:59:19;17.73;;;12.48;;
61397;SDS011;47267;48.130;-2.040;2022-10-16T11:07:04;18.52;;;13.70;;
61397;SDS011;47267;48.130;-2.040;2022-10-16T11:09:41;25.85;;;14.85;;
61397;SDS011;47267;48.130;-2.040;2022-10-16T11:12:26;22.77;;;15.18;;
61397;SDS011;47267;48.130;-2.040;2022-10-16T11:17:44;18.17;;;14.23;;
61397;SDS011;47267;48.130;-2.040;2022-10-16T11:20:24;20.98;;;15.07;;
61397;SDS011;47267;48.130;-2.040;2022-10-16T11:22:54;18.23;;;14.57;;
61397;SDS011;47267;48.130;-2.040;2022-10-16T11:25:29;18.85;;;14.43;;
61397;SDS011;47267;48.130;-2.040;2022-10-16T11:33:35;19.73;;;13.57;;
61397;SDS011;47267;48.130;-2.040;2022-10-16T11:36:19;20.02;;;14.13;;
61397;SDS011;47267;48.130;-2.040;2022-10-16T11:47:34;16.02;;;12.60;;
61397;SDS011;47267;48.130;-2.040;2022-10-16T11:55:44;15.65;;;12.43;;
61397;SDS011;47267;48.130;-2.040;2022-10-16T12:00:57;16.75;;;12.55;;
61397;SDS011;47267;48.130;-2.040;2022-10-16T12:06:47;15.25;;;11.75;;
61397;SDS011;47267;48.130;-2.040;2022-10-16T12:09:24;13.00;;;11.13;;
61397;SDS011;47267;48.130;-2.040;2022-10-16T12:11:52;17.00;;;11.55;;
61397;SDS011;47267;48.130;-2.040;2022-10-16T12:14:19;14.30;;;11.20;;
61397;SDS011;47267;48.130;-2.040;2022-10-16T12:19:23;16.35;;;10.93;;
61397;SDS011;47267;48.130;-2.040;2022-10-16T12:21:51;13.25;;;10.32;;
61397;SDS011;47267;48.130;-2.040;2022-10-16T12:24:21;13.10;;;10.70;;
61397;SDS011;47267;48.130;-2.040;2022-10-16T12:30:05;14.13;;;10.77;;
61397;SDS011;47267;48.130;-2.040;2022-10-16T12:32:33;14.60;;;10.25;;
61397;SDS011;47267;48.130;-2.040;2022-10-16T12:35:04;13.23;;;9.82;;
61397;SDS011;47267;48.130;-2.040;2022-10-16T12:37:41;14.15;;;10.35;;
61397;SDS011;47267;48.130;-2.040;2022-10-16T12:40:23;13.88;;;9.40;;
61397;SDS011;47267;48.130;-2.040;2022-10-16T12:42:53;11.35;;;9.68;;
61397;SDS011;47267;48.130;-2.040;2022-10-16T12:45:30;11.57;;;9.02;;
61397;SDS011;47267;48.130;-2.040;2022-10-16T12:47:58;13.25;;;9.88;;
61397;SDS011;47267;48.130;-2.040;2022-10-16T12:50:27;12.35;;;9.43;;
61397;SDS011;47267;48.130;-2.040;2022-10-16T12:52:59;11.85;;;9.25;;
61397;SDS011;47267;48.130;-2.040;2022-10-16T12:55:30;11.10;;;8.90;;
61397;SDS011;47267;48.130;-2.040;2022-10-16T13:00:54;10.32;;;8.45;;
61397;SDS011;47267;48.130;-2.040;2022-10-16T13:08:54;10.35;;;7.65;;
61397;SDS011;47267;48.130;-2.040;2022-10-16T13:22:36;9.20;;;7.32;;
61397;SDS011;47267;48.130;-2.040;2022-10-16T13:30:27;7.88;;;6.55;;
61397;SDS011;47267;48.130;-2.040;2022-10-16T13:33:00;8.32;;;6.60;;
61397;SDS011;47267;48.130;-2.040;2022-10-16T13:35:32;10.13;;;6.68;;
61397;SDS011;47267;48.130;-2.040;2022-10-16T13:38:03;8.93;;;6.88;;
61397;SDS011;47267;48.130;-2.040;2022-10-16T13:40:30;8.75;;;6.32;;
61397;SDS011;47267;48.130;-2.040;2022-10-16T13:42:59;8.57;;;6.60;;
61397;SDS011;47267;48.130;-2.040;2022-10-16T13:45:26;8.82;;;6.60;;
61397;SDS011;47267;48.130;-2.040;2022-10-16T13:48:01;10.27;;;6.45;;
61397;SDS011;47267;48.130;-2.040;2022-10-16T13:50:31;8.43;;;6.20;;
61397;SDS011;47267;48.130;-2.040;2022-10-16T13:53:07;7.85;;;6.18;;
61397;SDS011;47267;48.130;-2.040;2022-10-16T13:55:40;7.38;;;6.10;;
61397;SDS011;47267;48.130;-2.040;2022-10-16T13:58:12;9.75;;;5.40;;
61397;SDS011;47267;48.130;-2.040;2022-10-16T14:00:39;8.38;;;5.72;;
61397;SDS011;47267;48.130;-2.040;2022-10-16T14:03:13;8.10;;;6.13;;
61397;SDS011;47267;48.130;-2.040;2022-10-16T14:05:49;9.40;;;6.00;;
61397;SDS011;47267;48.130;-2.040;2022-10-16T14:08:17;6.57;;;5.60;;
61397;SDS011;47267;48.130;-2.040;2022-10-16T14:10:46;7.13;;;5.45;;
61397;SDS011;47267;48.130;-2.040;2022-10-16T14:15:45;7.25;;;5.85;;
61397;SDS011;47267;48.130;-2.040;2022-10-16T14:18:18;7.93;;;5.68;;
61397;SDS011;47267;48.130;-2.040;2022-10-16T14:20:46;9.65;;;5.43;;
61397;SDS011;47267;48.130;-2.040;2022-10-16T14:23:30;6.57;;;5.00;;
61397;SDS011;47267;48.130;-2.040;2022-10-16T14:28:34;6.70;;;4.88;;
61397;SDS011;47267;48.130;-2.040;2022-10-16T14:31:02;6.05;;;4.70;;
61397;SDS011;47267;48.130;-2.040;2022-10-16T14:33:48;6.40;;;4.88;;
61397;SDS011;47267;48.130;-2.040;2022-10-16T14:36:15;5.80;;;4.70;;
61397;SDS011;47267;48.130;-2.040;2022-10-16T14:39:05;6.70;;;5.03;;
61397;SDS011;47267;48.130;-2.040;2022-10-16T14:41:43;7.20;;;4.88;;
61397;SDS011;47267;48.130;-2.040;2022-10-16T14:44:11;6.28;;;4.50;;
61397;SDS011;47267;48.130;-2.040;2022-10-16T14:46:38;5.93;;;4.40;;
61397;SDS011;47267;48.130;-2.040;2022-10-16T14:51:35;5.32;;;4.40;;
61397;SDS011;47267;48.130;-2.040;2022-10-16T14:54:01;5.38;;;4.40;;
61397;SDS011;47267;48.130;-2.040;2022-10-16T14:56:34;5.10;;;4.25;;
61397;SDS011;47267;48.130;-2.040;2022-10-16T14:59:16;6.28;;;4.38;;
61397;SDS011;47267;48.130;-2.040;2022-10-16T15:01:56;6.32;;;4.68;;
61397;SDS011;47267;48.130;-2.040;2022-10-16T15:04:22;6.43;;;4.57;;
61397;SDS011;47267;48.130;-2.040;2022-10-16T15:06:48;4.88;;;4.15;;
61397;SDS011;47267;48.130;-2.040;2022-10-16T15:09:14;6.40;;;4.40;;
61397;SDS011;47267;48.130;-2.040;2022-10-16T15:11:39;6.05;;;4.00;;
61397;SDS011;47267;48.130;-2.040;2022-10-16T15:14:08;4.63;;;3.95;;
61397;SDS011;47267;48.130;-2.040;2022-10-16T15:16:36;5.13;;;4.10;;
61397;SDS011;47267;48.130;-2.040;2022-10-16T15:19:01;6.00;;;4.18;;
61397;SDS011;47267;48.130;-2.040;2022-10-16T15:21:29;6.82;;;4.10;;
61397;SDS011;47267;48.130;-2.040;2022-10-16T15:23:57;4.88;;;4.05;;
61397;SDS011;47267;48.130;-2.040;2022-10-16T15:26:24;5.18;;;3.67;;
61397;SDS011;47267;48.130;-2.040;2022-10-16T15:28:51;4.90;;;3.55;;
61397;SDS011;47267;48.130;-2.040;2022-10-16T15:31:16;5.43;;;4.20;;
61397;SDS011;47267;48.130;-2.040;2022-10-16T15:33:43;6.68;;;4.15;;
61397;SDS011;47267;48.130;-2.040;2022-10-16T15:36:09;4.40;;;3.97;;
61397;SDS011;47267;48.130;-2.040;2022-10-16T15:38:34;4.65;;;3.63;;
61397;SDS011;47267;48.130;-2.040;2022-10-16T15:41:00;9.20;;;3.40;;
61397;SDS011;47267;48.130;-2.040;2022-10-16T15:43:26;4.97;;;3.75;;
61397;SDS011;47267;48.130;-2.040;2022-10-16T15:46:03;3.88;;;3.22;;
61397;SDS011;47267;48.130;-2.040;2022-10-16T15:48:32;5.18;;;3.47;;
61397;SDS011;47267;48.130;-2.040;2022-10-16T15:50:59;5.10;;;3.50;;
61397;SDS011;47267;48.130;-2.040;2022-10-16T15:53:29;5.10;;;3.50;;
61397;SDS011;47267;48.130;-2.040;2022-10-16T15:55:55;4.28;;;3.28;;
61397;SDS011;47267;48.130;-2.040;2022-10-16T15:58:21;3.70;;;2.97;;
61397;SDS011;47267;48.130;-2.040;2022-10-16T16:00:54;3.38;;;3.05;;
61397;SDS011;47267;48.130;-2.040;2022-10-16T16:03:20;4.00;;;3.35;;
61397;SDS011;47267;48.130;-2.040;2022-10-16T16:05:46;3.63;;;3.05;;
61397;SDS011;47267;48.130;-2.040;2022-10-16T16:08:12;4.05;;;3.05;;
61397;SDS011;47267;48.130;-2.040;2022-10-16T16:10:38;4.53;;;3.30;;
61397;SDS011;47267;48.130;-2.040;2022-10-16T16:13:04;3.75;;;3.03;;
61397;SDS011;47267;48.130;-2.040;2022-10-16T16:15:30;4.57;;;2.88;;
61397;SDS011;47267;48.130;-2.040;2022-10-16T16:17:56;5.72;;;3.10;;
61397;SDS011;47267;48.130;-2.040;2022-10-16T16:20:23;3.75;;;3.00;;
61397;SDS011;47267;48.130;-2.040;2022-10-16T16:22:49;3.67;;;2.90;;
61397;SDS011;47267;48.130;-2.040;2022-10-16T16:25:15;3.83;;;2.80;;
61397;SDS011;47267;48.130;-2.040;2022-10-16T16:27:41;4.53;;;3.35;;
61397;SDS011;47267;48.130;-2.040;2022-10-16T16:30:07;4.68;;;2.97;;
61397;SDS011;47267;48.130;-2.040;2022-10-16T16:32:34;5.70;;;2.80;;
61397;SDS011;47267;48.130;-2.040;2022-10-16T16:35:00;4.45;;;3.08;;
61397;SDS011;47267;48.130;-2.040;2022-10-16T16:37:27;3.15;;;2.75;;
61397;SDS011;47267;48.130;-2.040;2022-10-16T16:39:53;3.47;;;2.67;;
61397;SDS011;47267;48.130;-2.040;2022-10-16T16:42:21;3.58;;;2.60;;
61397;SDS011;47267;48.130;-2.040;2022-10-16T16:44:48;4.22;;;3.15;;
61397;SDS011;47267;48.130;-2.040;2022-10-16T16:47:15;3.35;;;2.67;;
61397;SDS011;47267;48.130;-2.040;2022-10-16T16:49:42;3.53;;;2.50;;
61397;SDS011;47267;48.130;-2.040;2022-10-16T16:52:11;3.63;;;2.90;;
61397;SDS011;47267;48.130;-2.040;2022-10-16T16:54:38;5.35;;;2.80;;
61397;SDS011;47267;48.130;-2.040;2022-10-16T16:57:04;4.15;;;2.90;;
61397;SDS011;47267;48.130;-2.040;2022-10-16T16:59:30;6.30;;;2.80;;
61397;SDS011;47267;48.130;-2.040;2022-10-16T17:01:59;4.65;;;2.58;;
61397;SDS011;47267;48.130;-2.040;2022-10-16T17:04:25;3.63;;;2.47;;
61397;SDS011;47267;48.130;-2.040;2022-10-16T17:06:52;5.32;;;3.08;;
61397;SDS011;47267;48.130;-2.040;2022-10-16T17:09:19;2.85;;;2.50;;